Главная страница
METAR-TAF:

METAR-TAF

Аэропорты :

Bedford, Пенсильвания, США

широта: 40-05-10N, долгота: 078-30-49W, высота над уровнем моря: 354 м

Текущие метеонаблюдения

Эта сводка был подготовлена 23 минут назад, в 08:55 UTC
Штиль
Температура 15°C
Влажность 94%
Давление 1020 hPa
Видимость: 16.1 км
Сплошная облачность на высоте 3900 фута

METAR: KHMZ 060855Z AUTO 00000KT 10SM OVC039 15/14 A3012 RMK AO2 LTG DSNT SW T01460139

Время: 05:18 (09:18 UTC)


TAF: отсутствует

Метеонаблюдения и прогнозы для более 4000 аэропортов (сводки METAR и TAF).

Имеющиеся станции представлены на карте желтыми и красными точками.

Чтобы увидеть название станции, наведите на нее мышь.

Затем щелкните, чтобы увидеть метеонаблюдения и метеопрогнозы.

Управление картой: чтобы увеличить масштаб, щелкните зеленые кнопки с черным крестиком; чтобы уменьшить масштаб, щелкните зеленую кнопку с тире; для просмотра соседних карт щелкайте зеленые стрелки.


METAR-TAF: